Time;durP1;ratioP1;P1;durP2;ratioP2;P2;SDS_P1;SDS_P2;PMS_P1;PMS_P2;Temp;Humidity;BMP_temperature;BMP_pressure;BME280_temperature;BME280_humidity;BME280_pressure;Samples;Min_cycle;Max_cycle;Signal;HPM_P1;HPM_P2
2023/05/17 00:01:33;;;;;;;2.00;1.17;;;10.50;94.30;;;;;;4914946;29;20234;-87
2023/05/17 00:03:59;;;;;;;3.27;1.80;;;10.70;94.40;;;;;;4917798;29;20770;-87
2023/05/17 00:06:24;;;;;;;4.13;1.77;;;10.80;94.60;;;;;;4915848;29;20189;-88
2023/05/17 00:08:50;;;;;;;1.80;1.60;;;10.30;94.10;;;;;;4915781;29;20229;-88
2023/05/17 00:11:15;;;;;;;2.63;1.43;;;10.20;94.60;;;;;;4922491;29;20211;-88
2023/05/17 00:13:41;;;;;;;2.13;1.10;;;10.60;94.70;;;;;;4917173;29;20192;-88
2023/05/17 00:16:07;;;;;;;1.50;1.30;;;10.20;95.20;;;;;;4912343;29;20210;-87
2023/05/17 00:18:32;;;;;;;4.03;1.55;;;10.60;95.70;;;;;;4934730;29;20262;-87
2023/05/17 00:20:58;;;;;;;2.30;1.33;;;10.30;96.20;;;;;;4914175;29;20242;-87
2023/05/17 00:23:23;;;;;;;3.00;1.73;;;10.30;96.60;;;;;;4916423;29;20196;-88
2023/05/17 00:25:49;;;;;;;2.50;1.67;;;10.60;96.70;;;;;;4914300;29;20529;-88
2023/05/17 00:28:15;;;;;;;1.92;1.50;;;10.30;96.50;;;;;;4920011;29;20269;-88
2023/05/17 00:30:40;;;;;;;1.80;1.50;;;10.10;97.10;;;;;;4916586;29;20305;-87
2023/05/17 00:33:06;;;;;;;3.73;1.50;;;10.10;97.20;;;;;;4917526;29;20207;-87
2023/05/17 00:35:32;;;;;;;1.93;1.30;;;9.80;97.10;;;;;;4916496;29;20226;-87
2023/05/17 00:37:57;;;;;;;3.50;1.70;;;9.90;97.90;;;;;;4915797;29;20750;-87
2023/05/17 00:40:23;;;;;;;1.23;1.13;;;10.30;97.40;;;;;;4917633;29;20198;-87
2023/05/17 00:42:48;;;;;;;4.80;1.97;;;10.30;97.70;;;;;;4932450;29;20226;-88
2023/05/17 00:45:14;;;;;;;2.90;2.20;;;10.10;98.30;;;;;;4913734;29;20196;-88
2023/05/17 00:47:39;;;;;;;2.90;1.43;;;10.00;98.00;;;;;;4919759;29;20194;-88
2023/05/17 00:50:07;;;;;;;6.47;1.40;;;10.00;97.70;;;;;;4918093;29;20224;-88
2023/05/17 00:52:33;;;;;;;3.10;1.77;;;9.80;98.50;;;;;;4917924;29;20215;-87
2023/05/17 00:54:58;;;;;;;3.38;1.80;;;9.80;98.90;;;;;;4918738;29;20665;-88
2023/05/17 00:57:24;;;;;;;3.43;1.90;;;9.80;99.50;;;;;;4916465;29;20218;-88
2023/05/17 00:59:51;;;;;;;2.10;1.63;;;10.00;99.90;;;;;;4917265;29;20668;-88
2023/05/17 01:02:16;;;;;;;4.43;2.10;;;9.30;99.90;;;;;;4919255;29;20511;-88
2023/05/17 01:04:43;;;;;;;4.87;1.47;;;9.80;99.90;;;;;;4915241;29;20286;-88
2023/05/17 01:07:09;;;;;;;3.40;1.80;;;9.40;99.90;;;;;;4917090;29;20208;-88
2023/05/17 01:09:36;;;;;;;1.73;1.55;;;9.50;99.90;;;;;;4918099;29;20580;-88
2023/05/17 01:12:20;;;;;;;3.17;1.58;;;8.90;99.90;;;;;;4915161;29;20668;-88
2023/05/17 01:15:08;;;;;;;2.13;1.60;;;9.50;99.90;;;;;;4914895;29;20191;-87
2023/05/17 01:18:03;;;;;;;2.72;1.65;;;9.40;99.90;;;;;;4925270;29;20193;-87
2023/05/17 01:20:40;;;;;;;3.85;1.65;;;9.30;99.90;;;;;;4921363;29;20201;-88
2023/05/17 01:23:33;;;;;;;2.20;1.80;;;9.10;99.90;;;;;;4916536;29;20212;-88
2023/05/17 01:26:19;;;;;;;1.52;1.42;;;9.10;99.90;;;;;;4919585;29;20209;-87
2023/05/17 01:28:48;;;;;;;1.83;1.55;;;9.00;99.90;;;;;;4918315;29;20283;-88
2023/05/17 01:31:14;;;;;;;1.65;1.52;;;9.00;99.90;;;;;;4917669;29;20197;-88
2023/05/17 01:33:40;;;;;;;6.45;1.70;;;9.20;99.90;;;;;;4918757;29;20190;-88
2023/05/17 01:36:06;;;;;;;2.50;1.67;;;9.00;99.90;;;;;;4915923;29;20181;-88
2023/05/17 01:38:31;;;;;;;1.90;1.70;;;8.90;99.90;;;;;;4913115;29;20579;-88
2023/05/17 01:41:15;;;;;;;3.50;1.57;;;8.90;99.90;;;;;;4914305;29;20178;-88
2023/05/17 01:44:06;;;;;;;2.50;1.50;;;8.80;99.90;;;;;;4918840;29;20186;-88
2023/05/17 01:46:40;;;;;;;1.48;1.25;;;8.60;99.90;;;;;;4922100;29;20291;-86
2023/05/17 01:49:23;;;;;;;4.43;1.73;;;9.20;99.90;;;;;;4927153;29;20217;-88
2023/05/17 01:52:01;;;;;;;4.20;1.50;;;8.70;99.90;;;;;;4930213;29;20209;-87
2023/05/17 01:54:34;;;;;;;3.35;1.73;;;8.20;99.90;;;;;;4929188;29;20187;-88
2023/05/17 01:57:03;;;;;;;2.08;1.40;;;8.90;99.90;;;;;;4919836;29;20183;-88
2023/05/17 01:59:30;;;;;;;2.90;1.88;;;9.00;99.90;;;;;;4919030;29;20249;-88
2023/05/17 02:02:05;;;;;;;2.95;1.77;;;8.60;99.90;;;;;;4915576;29;20218;-88
2023/05/17 02:04:31;;;;;;;1.60;1.50;;;8.80;99.90;;;;;;4919934;29;20194;-88
2023/05/17 02:06:56;;;;;;;1.67;1.50;;;8.70;99.90;;;;;;4927498;29;20213;-88
2023/05/17 02:09:22;;;;;;;5.60;1.70;;;8.50;99.90;;;;;;4918740;29;20225;-87
2023/05/17 02:11:47;;;;;;;2.53;1.63;;;8.50;99.90;;;;;;4915747;29;20205;-88
2023/05/17 02:14:13;;;;;;;1.77;1.67;;;8.50;99.90;;;;;;4922139;29;20205;-88
2023/05/17 02:16:38;;;;;;;2.13;1.93;;;8.60;99.90;;;;;;4915415;29;20190;-88
2023/05/17 02:19:06;;;;;;;2.07;1.87;;;8.90;99.90;;;;;;4920125;29;20223;-88
2023/05/17 02:21:31;;;;;;;2.20;1.95;;;8.50;99.90;;;;;;4914872;29;20645;-88
2023/05/17 02:23:57;;;;;;;1.67;1.57;;;8.70;99.90;;;;;;4918546;29;20190;-88
2023/05/17 02:26:22;;;;;;;1.50;1.37;;;8.90;99.90;;;;;;4916457;29;20273;-88
2023/05/17 02:28:51;;;;;;;3.00;1.80;;;8.50;99.90;;;;;;4915539;29;20876;-88
2023/05/17 02:31:16;;;;;;;3.80;1.90;;;8.70;99.90;;;;;;4917539;29;20914;-88
2023/05/17 02:33:42;;;;;;;3.30;1.50;;;8.20;99.90;;;;;;4920463;29;20190;-88
2023/05/17 02:36:07;;;;;;;1.67;1.57;;;8.00;99.90;;;;;;4932355;29;20192;-87
2023/05/17 02:38:33;;;;;;;2.23;1.80;;;8.10;99.90;;;;;;4939659;29;20218;-88
2023/05/17 02:40:58;;;;;;;2.10;2.00;;;8.40;99.90;;;;;;4936910;29;20186;-87
2023/05/17 02:43:24;;;;;;;3.37;1.83;;;8.20;99.90;;;;;;4938170;29;20179;-88
2023/05/17 02:45:49;;;;;;;1.97;1.40;;;8.10;99.90;;;;;;4933491;29;20208;-88
2023/05/17 02:48:15;;;;;;;2.20;1.90;;;8.10;99.90;;;;;;4934981;29;20193;-88
2023/05/17 02:50:42;;;;;;;2.90;1.85;;;8.30;99.90;;;;;;4933175;29;20260;-88
2023/05/17 02:53:07;;;;;;;2.07;1.80;;;8.00;99.90;;;;;;4932253;29;20205;-88
2023/05/17 02:55:32;;;;;;;3.17;2.07;;;8.20;99.90;;;;;;4931027;29;20197;-88
2023/05/17 02:57:58;;;;;;;2.87;2.10;;;7.60;99.90;;;;;;4931228;29;20246;-88
2023/05/17 03:00:23;;;;;;;1.70;1.60;;;8.10;99.90;;;;;;4932629;29;20193;-88
2023/05/17 03:02:49;;;;;;;2.63;2.03;;;7.90;99.90;;;;;;4929703;29;20217;-88
2023/05/17 03:05:15;;;;;;;5.60;2.10;;;8.00;99.90;;;;;;4931175;29;20241;-88
2023/05/17 03:07:40;;;;;;;1.90;1.70;;;7.70;99.90;;;;;;4939074;29;20169;-88
2023/05/17 03:10:06;;;;;;;2.47;2.27;;;7.80;99.90;;;;;;4932939;29;20312;-88
2023/05/17 03:12:31;;;;;;;2.77;2.10;;;7.70;99.90;;;;;;4929482;29;20220;-87
2023/05/17 03:14:57;;;;;;;3.17;2.00;;;7.80;99.90;;;;;;4932478;29;20725;-88
2023/05/17 03:17:22;;;;;;;5.83;2.03;;;7.80;99.90;;;;;;4937245;29;20214;-88
2023/05/17 03:19:48;;;;;;;3.53;1.80;;;7.50;99.90;;;;;;4935840;29;20200;-87
2023/05/17 03:22:13;;;;;;;2.40;2.00;;;8.00;99.90;;;;;;4934602;29;20206;-88
2023/05/17 03:24:39;;;;;;;4.73;2.07;;;7.70;99.90;;;;;;4939916;29;20205;-88
2023/05/17 03:27:05;;;;;;;3.37;2.00;;;8.00;99.90;;;;;;4940371;29;20191;-88
2023/05/17 03:29:30;;;;;;;2.27;2.07;;;7.50;99.90;;;;;;4919349;29;20217;-88
2023/05/17 03:31:56;;;;;;;3.13;2.17;;;7.60;99.90;;;;;;4916440;29;20484;-88
2023/05/17 03:34:21;;;;;;;2.00;1.80;;;7.50;99.90;;;;;;4917231;29;20661;-88
2023/05/17 03:36:47;;;;;;;2.67;2.40;;;7.80;99.90;;;;;;4919660;29;20188;-87
2023/05/17 03:39:12;;;;;;;2.93;1.97;;;8.00;99.90;;;;;;4920043;29;20221;-88
2023/05/17 03:41:38;;;;;;;2.00;1.90;;;7.90;99.90;;;;;;4921534;29;20214;-87
2023/05/17 03:44:04;;;;;;;1.63;1.53;;;7.60;99.90;;;;;;4941295;29;20200;-88
2023/05/17 03:46:29;;;;;;;2.20;1.97;;;7.40;99.90;;;;;;4926121;29;20718;-87
2023/05/17 03:48:55;;;;;;;5.10;2.00;;;7.50;99.90;;;;;;4920937;29;20477;-88
2023/05/17 03:51:20;;;;;;;2.57;2.10;;;7.50;99.90;;;;;;4915020;29;20724;-88
2023/05/17 03:53:46;;;;;;;5.00;2.23;;;7.70;99.90;;;;;;4918737;29;20198;-88
2023/05/17 03:56:11;;;;;;;2.23;2.10;;;7.90;99.90;;;;;;4920909;29;20185;-88
2023/05/17 03:58:37;;;;;;;3.77;2.20;;;7.40;99.90;;;;;;4918286;29;20600;-88
2023/05/17 04:01:03;;;;;;;4.17;2.30;;;7.80;99.90;;;;;;4934007;29;20186;-87
2023/05/17 04:03:29;;;;;;;3.47;2.75;;;7.60;99.90;;;;;;4935923;29;20197;-88
2023/05/17 04:06:07;;;;;;;4.67;2.30;;;8.10;99.90;;;;;;4932323;29;20285;-88
2023/05/17 04:08:34;;;;;;;6.53;2.30;;;7.50;99.90;;;;;;4919874;29;20280;-88
2023/05/17 04:11:08;;;;;;;3.95;2.20;;;7.50;99.90;;;;;;4916099;29;20182;-88
2023/05/17 04:13:35;;;;;;;2.20;2.00;;;8.00;99.90;;;;;;4918659;29;20180;-88
2023/05/17 04:16:00;;;;;;;4.72;2.17;;;7.50;99.90;;;;;;4918558;29;20193;-88
2023/05/17 04:18:26;;;;;;;2.83;2.30;;;7.60;99.90;;;;;;4917336;29;20240;-87
2023/05/17 04:20:53;;;;;;;3.60;2.10;;;7.60;99.90;;;;;;4922367;29;20573;-87
2023/05/17 04:23:19;;;;;;;4.10;2.17;;;7.80;99.90;;;;;;4918399;29;20221;-87
2023/05/17 04:25:45;;;;;;;2.50;2.17;;;7.60;99.90;;;;;;4918739;29;20189;-87
2023/05/17 04:28:11;;;;;;;4.18;2.10;;;7.50;99.90;;;;;;4912614;29;20539;-88
2023/05/17 04:30:41;;;;;;;4.40;2.80;;;7.50;99.90;;;;;;4914370;29;20213;-88
2023/05/17 04:33:07;;;;;;;2.75;2.50;;;8.00;99.90;;;;;;4916554;29;20461;-88
2023/05/17 04:35:32;;;;;;;2.60;2.40;;;7.70;99.90;;;;;;4917873;29;20186;-88
2023/05/17 04:37:58;;;;;;;2.70;2.50;;;8.00;99.90;;;;;;4915665;29;20196;-87
2023/05/17 04:40:23;;;;;;;3.13;2.17;;;7.60;99.90;;;;;;4920527;29;20635;-88
2023/05/17 04:42:49;;;;;;;2.53;1.90;;;7.70;99.90;;;;;;4918553;29;20249;-88
2023/05/17 04:45:15;;;;;;;3.83;2.53;;;8.00;99.90;;;;;;4918482;29;20280;-88
2023/05/17 04:47:40;;;;;;;5.10;2.63;;;7.80;99.90;;;;;;4915817;29;20194;-88
2023/05/17 04:50:06;;;;;;;3.83;2.27;;;8.20;99.90;;;;;;4919173;29;20237;-88
2023/05/17 04:52:31;;;;;;;3.00;2.00;;;8.20;99.90;;;;;;4920787;29;20586;-88
2023/05/17 04:54:57;;;;;;;4.80;2.20;;;9.00;99.90;;;;;;4921429;29;20192;-88
2023/05/17 04:57:23;;;;;;;6.03;2.67;;;8.60;99.90;;;;;;4914982;29;20193;-88
2023/05/17 04:59:48;;;;;;;2.83;2.63;;;8.60;99.90;;;;;;4920385;29;20197;-88
2023/05/17 05:02:14;;;;;;;3.97;2.33;;;9.00;99.90;;;;;;4917742;29;20217;-88
2023/05/17 05:04:39;;;;;;;3.77;2.00;;;8.70;99.90;;;;;;4916936;29;20208;-88
2023/05/17 05:07:05;;;;;;;3.00;2.30;;;8.90;99.90;;;;;;4916109;29;20215;-88
2023/05/17 05:09:30;;;;;;;2.63;2.00;;;9.00;99.90;;;;;;4917222;29;20202;-88
2023/05/17 05:11:56;;;;;;;4.60;4.07;;;9.00;99.90;;;;;;4912729;29;20205;-88
2023/05/17 05:14:21;;;;;;;4.97;3.10;;;9.20;99.90;;;;;;4916158;29;20286;-88
2023/05/17 05:16:47;;;;;;;5.40;3.27;;;9.50;99.90;;;;;;4916697;29;20728;-88
2023/05/17 05:19:12;;;;;;;5.27;2.30;;;10.80;99.90;;;;;;4918583;29;20698;-88
2023/05/17 05:21:38;;;;;;;2.90;2.27;;;10.60;99.90;;;;;;4933220;29;20309;-87
2023/05/17 05:24:04;;;;;;;5.70;2.00;;;9.30;99.90;;;;;;4917212;29;20261;-87
2023/05/17 05:26:29;;;;;;;4.63;1.70;;;10.00;99.90;;;;;;4900329;29;21159;-88
2023/05/17 05:28:55;;;;;;;3.20;2.30;;;9.70;99.90;;;;;;4917319;29;20210;-88
2023/05/17 05:31:20;;;;;;;2.53;1.80;;;10.00;99.90;;;;;;4918361;29;20220;-88
2023/05/17 05:33:46;;;;;;;1.70;1.53;;;10.10;99.90;;;;;;4919240;29;20556;-88
2023/05/17 05:36:12;;;;;;;1.77;1.60;;;10.10;99.90;;;;;;4916091;29;20198;-88
2023/05/17 05:38:37;;;;;;;8.03;2.00;;;10.40;99.90;;;;;;4930179;29;20188;-88
2023/05/17 05:41:03;;;;;;;6.80;3.63;;;10.30;99.90;;;;;;4920636;29;20195;-88
2023/05/17 05:43:28;;;;;;;3.43;1.97;;;10.20;99.90;;;;;;4930170;29;20195;-88
2023/05/17 05:45:54;;;;;;;2.60;1.93;;;;;;;;;;4914686;29;20793;-88
2023/05/17 05:48:20;;;;;;;5.00;3.40;;;10.40;99.10;;;;;;4915967;29;20245;-86
2023/05/17 05:50:48;;;;;;;2.73;1.97;;;10.60;99.40;;;;;;4935966;29;20219;-89
2023/05/17 05:53:14;;;;;;;3.80;2.80;;;10.60;99.70;;;;;;4916954;29;20197;-87
2023/05/17 05:55:41;;;;;;;4.83;2.30;;;10.60;99.80;;;;;;4914409;29;20195;-87
2023/05/17 05:58:08;;;;;;;7.07;2.60;;;10.60;99.00;;;;;;4914421;29;20192;-86
2023/05/17 06:00:34;;;;;;;4.10;2.53;;;10.90;99.60;;;;;;4919211;29;20200;-86
2023/05/17 06:02:59;;;;;;;3.60;2.13;;;11.10;98.90;;;;;;4918686;29;20212;-89
2023/05/17 06:05:25;;;;;;;2.90;2.07;;;11.30;99.20;;;;;;4919581;29;20570;-84
2023/05/17 06:07:50;;;;;;;2.43;2.07;;;10.90;98.60;;;;;;4928091;29;20200;-85
2023/05/17 06:10:16;;;;;;;2.70;2.10;;;11.30;98.90;;;;;;4921582;29;20208;-83
2023/05/17 06:12:42;;;;;;;3.67;2.20;;;10.80;98.80;;;;;;4926823;29;20209;-83
2023/05/17 06:15:08;;;;;;;2.83;1.80;;;11.00;98.80;;;;;;4930329;29;20666;-86
2023/05/17 06:17:33;;;;;;;4.65;2.10;;;10.90;98.90;;;;;;4937851;29;20730;-85
2023/05/17 06:19:59;;;;;;;7.70;2.27;;;11.40;99.10;;;;;;4934224;29;20214;-86
2023/05/17 06:22:26;;;;;;;5.60;3.10;;;11.20;98.80;;;;;;4944936;29;20216;-86
2023/05/17 06:24:51;;;;;;;6.70;3.10;;;11.50;98.90;;;;;;4932515;29;20247;-85
2023/05/17 06:27:17;;;;;;;4.60;2.20;;;11.30;98.50;;;;;;4951869;29;20204;-86
2023/05/17 06:29:43;;;;;;;4.37;2.33;;;11.10;98.00;;;;;;4931425;29;20527;-85
2023/05/17 06:32:08;;;;;;;5.20;2.30;;;11.40;98.00;;;;;;4934430;29;20205;-86
2023/05/17 06:34:34;;;;;;;5.27;2.03;;;11.60;97.80;;;;;;4936448;29;20253;-87
2023/05/17 06:36:59;;;;;;;4.70;1.97;;;11.60;97.80;;;;;;4934861;29;20255;-86
2023/05/17 06:39:25;;;;;;;5.47;2.60;;;11.80;98.00;;;;;;4951980;29;20192;-85
2023/05/17 06:41:51;;;;;;;5.00;2.53;;;12.10;98.00;;;;;;4931648;29;20207;-85
2023/05/17 06:44:16;;;;;;;3.20;2.07;;;12.20;97.60;;;;;;4931695;29;20289;-86
2023/05/17 06:46:42;;;;;;;3.03;2.13;;;12.00;96.30;;;;;;4936353;29;20265;-85
2023/05/17 06:49:07;;;;;;;4.50;3.37;;;12.30;96.30;;;;;;4934117;29;20205;-88
2023/05/17 06:51:33;;;;;;;2.80;2.60;;;12.20;96.30;;;;;;4930302;29;20224;-88
2023/05/17 06:53:58;;;;;;;6.83;2.83;;;12.10;96.20;;;;;;4924409;29;20237;-88
2023/05/17 06:56:24;;;;;;;4.30;2.30;;;12.30;96.40;;;;;;4914063;29;20192;-88
2023/05/17 06:58:50;;;;;;;4.80;2.47;;;12.80;96.00;;;;;;4917455;29;20670;-87
2023/05/17 07:01:15;;;;;;;3.70;2.57;;;12.90;95.60;;;;;;4916042;29;20191;-88
2023/05/17 07:03:41;;;;;;;6.40;3.23;;;13.90;95.10;;;;;;4915517;29;20520;-87
2023/05/17 07:06:06;;;;;;;6.07;2.73;;;14.60;93.20;;;;;;4911919;29;20194;-87
2023/05/17 07:08:32;;;;;;;4.70;1.97;;;16.60;90.50;;;;;;4921752;29;20201;-85
2023/05/17 07:10:57;;;;;;;3.70;2.50;;;17.90;84.20;;;;;;4918959;29;20418;-86
2023/05/17 07:13:23;;;;;;;4.40;2.30;;;19.10;78.20;;;;;;4921993;29;20194;-87
2023/05/17 07:15:49;;;;;;;3.17;2.83;;;20.60;74.80;;;;;;4919056;29;20241;-86
2023/05/17 07:18:15;;;;;;;5.10;2.87;;;20.50;70.50;;;;;;4935842;29;20204;-87
2023/05/17 07:20:40;;;;;;;3.60;2.50;;;21.90;69.50;;;;;;4935799;29;20561;-87
2023/05/17 07:23:06;;;;;;;3.20;2.80;;;21.00;66.80;;;;;;4914556;29;20466;-86
2023/05/17 07:25:32;;;;;;;5.53;3.03;;;21.90;65.80;;;;;;4917727;29;20208;-87
2023/05/17 07:27:57;;;;;;;4.03;3.03;;;22.10;65.00;;;;;;4916015;29;20201;-86
2023/05/17 07:30:23;;;;;;;3.60;2.63;;;21.00;64.70;;;;;;4916963;29;20284;-87
2023/05/17 07:32:48;;;;;;;4.93;3.03;;;21.40;63.50;;;;;;4930639;29;22223;-86
2023/05/17 07:35:14;;;;;;;3.93;2.43;;;21.00;65.30;;;;;;4922811;29;20185;-85
2023/05/17 07:37:41;;;;;;;3.40;2.87;;;20.90;65.80;;;;;;4922438;29;20181;-86
2023/05/17 07:40:07;;;;;;;3.53;2.65;;;21.10;63.70;;;;;;4920687;29;20186;-87
2023/05/17 07:42:33;;;;;;;2.72;2.53;;;20.40;63.40;;;;;;4921006;29;20281;-88
2023/05/17 07:44:58;;;;;;;2.93;2.30;;;19.80;66.60;;;;;;4914214;29;20189;-87
2023/05/17 07:47:24;;;;;;;6.67;2.60;;;19.80;67.20;;;;;;4919332;29;20249;-87
2023/05/17 07:49:49;;;;;;;4.80;3.37;;;18.80;69.80;;;;;;4919551;29;20701;-86
2023/05/17 07:52:15;;;;;;;4.30;2.50;;;18.00;72.50;;;;;;4921944;29;20591;-85
2023/05/17 07:54:40;;;;;;;4.90;2.93;;;18.40;72.60;;;;;;4918403;29;20250;-85
2023/05/17 07:57:06;;;;;;;4.70;3.20;;;18.30;73.50;;;;;;4917214;29;20200;-87
2023/05/17 07:59:32;;;;;;;5.73;3.50;;;18.80;74.10;;;;;;4922958;29;20198;-88
2023/05/17 08:01:57;;;;;;;5.83;3.30;;;19.20;71.30;;;;;;4920968;29;20308;-86
2023/05/17 08:04:23;;;;;;;5.50;3.03;;;20.10;71.30;;;;;;4919460;29;20224;-85
2023/05/17 08:06:49;;;;;;;4.60;2.63;;;21.20;67.30;;;;;;4922879;29;20189;-87
2023/05/17 08:09:18;;;;;;;4.40;2.20;;;20.80;64.60;;;;;;4918367;29;21041;-87
2023/05/17 08:11:47;;;;;;;5.43;3.33;;;20.00;67.00;;;;;;4907961;29;20473;-86
2023/05/17 08:14:13;;;;;;;4.45;3.30;;;18.90;68.90;;;;;;4941409;29;20182;-86
2023/05/17 08:16:43;;;;;;;4.20;3.80;;;19.10;72.20;;;;;;4923711;29;20190;-86
2023/05/17 08:19:15;;;;;;;4.03;3.00;;;18.90;72.80;;;;;;4921038;29;20624;-86
2023/05/17 08:21:48;;;;;;;5.10;3.25;;;18.10;73.80;;;;;;4926093;29;20289;-88
2023/05/17 08:24:14;;;;;;;5.55;3.30;;;17.50;71.90;;;;;;4920995;29;20673;-84
2023/05/17 08:26:39;;;;;;;3.67;2.90;;;19.10;73.80;;;;;;4930874;29;20197;-84
2023/05/17 08:29:05;;;;;;;4.40;3.00;;;20.10;71.20;;;;;;4924259;29;20782;-85
2023/05/17 08:31:31;;;;;;;4.17;3.07;;;22.40;65.60;;;;;;4993402;23;20243;-72
2023/05/17 08:33:57;;;;;;;4.70;3.50;;;20.10;64.80;;;;;;4944414;28;20184;-72
2023/05/17 08:36:23;;;;;;;3.63;3.30;;;20.10;65.00;;;;;;4945330;28;20239;-71
2023/05/17 08:38:49;;;;;;;4.37;2.80;;;20.50;65.00;;;;;;4964844;28;20728;-71
2023/05/17 08:41:14;;;;;;;3.70;2.97;;;20.90;62.70;;;;;;4958570;28;20527;-73
2023/05/17 08:43:41;;;;;;;4.00;3.57;;;20.30;64.60;;;;;;4956788;28;20213;-72
2023/05/17 08:46:08;;;;;;;4.22;3.03;;;18.90;67.20;;;;;;4955700;28;20459;-73
2023/05/17 08:48:40;;;;;;;5.22;3.70;;;18.60;70.90;;;;;;4943578;28;20192;-73
2023/05/17 08:51:07;;;;;;;4.75;2.67;;;18.80;68.90;;;;;;4942536;28;20748;-72
2023/05/17 08:53:34;;;;;;;6.60;3.00;;;18.60;68.90;;;;;;4958398;28;20518;-74
2023/05/17 08:56:03;;;;;;;5.25;3.67;;;18.00;71.00;;;;;;4957461;28;20176;-74
2023/05/17 08:58:34;;;;;;;4.07;2.83;;;18.50;71.40;;;;;;4957043;28;20185;-75
2023/05/17 09:01:01;;;;;;;4.63;2.90;;;18.50;70.30;;;;;;4937092;28;20216;-74
2023/05/17 09:03:29;;;;;;;5.28;3.10;;;18.50;72.00;;;;;;4938548;28;20224;-72
2023/05/17 09:05:55;;;;;;;6.20;3.75;;;17.90;72.40;;;;;;4958924;28;20181;-70
2023/05/17 09:08:22;;;;;;;5.82;2.80;;;17.50;73.60;;;;;;4937578;28;20607;-72
2023/05/17 09:10:48;;;;;;;4.30;3.72;;;17.60;74.40;;;;;;4957851;28;20220;-69
2023/05/17 09:13:14;;;;;;;3.72;3.10;;;17.40;74.80;;;;;;4937347;28;20195;-69
2023/05/17 09:15:45;;;;;;;4.43;3.53;;;17.30;74.80;;;;;;4950377;28;20185;-69
2023/05/17 09:18:11;;;;;;;3.85;3.08;;;16.90;74.50;;;;;;4955360;28;20586;-71
2023/05/17 09:20:38;;;;;;;3.97;2.80;;;17.00;77.50;;;;;;4935250;28;20720;-73
2023/05/17 09:23:06;;;;;;;4.03;3.13;;;16.90;75.10;;;;;;4960280;28;20180;-74
2023/05/17 09:25:32;;;;;;;4.50;3.38;;;17.00;76.10;;;;;;4939992;28;20598;-77
2023/05/17 09:28:04;;;;;;;3.83;3.00;;;16.80;75.60;;;;;;4944860;28;20188;-72
2023/05/17 09:30:31;;;;;;;4.43;3.40;;;16.60;76.00;;;;;;4958026;28;20351;-70
2023/05/17 09:33:03;;;;;;;3.90;3.03;;;17.10;76.60;;;;;;4943419;28;20188;-71
2023/05/17 09:35:30;;;;;;;6.78;4.28;;;18.70;71.70;;;;;;4958674;28;20228;-72
2023/05/17 09:38:07;;;;;;;5.57;3.33;;;18.90;68.80;;;;;;4957165;28;21814;-72
2023/05/17 09:40:37;;;;;;;4.38;3.65;;;19.60;68.10;;;;;;4953524;28;20208;-70
2023/05/17 09:43:02;;;;;;;3.40;3.10;;;19.80;66.20;;;;;;4960212;28;20188;-70
2023/05/17 09:45:31;;;;;;;6.50;3.60;;;19.80;64.60;;;;;;4938587;28;20684;-70
2023/05/17 09:47:57;;;;;;;3.15;2.85;;;19.40;64.60;;;;;;4940866;28;20692;-71
2023/05/17 09:50:23;;;;;;;2.88;2.53;;;19.30;64.70;;;;;;4953324;28;20244;-72
2023/05/17 09:52:49;;;;;;;4.60;2.97;;;19.00;65.00;;;;;;4935250;28;20211;-72
2023/05/17 09:55:16;;;;;;;4.05;3.08;;;18.20;64.30;;;;;;4957872;28;20647;-72
2023/05/17 11:02:24;;;;;;;4.50;3.15;;;17.40;65.70;;;;;;4704675;23;20229;-71
2023/05/17 11:04:54;;;;;;;4.10;3.70;;;17.50;66.00;;;;;;4946037;28;20640;-70
2023/05/17 11:07:28;;;;;;;4.95;4.35;;;17.60;65.90;;;;;;4930541;29;20195;-70
2023/05/17 11:10:02;;;;;;;4.57;3.65;;;17.90;67.20;;;;;;4946268;28;20272;-71
2023/05/17 11:12:40;;;;;;;6.63;4.78;;;17.50;66.50;;;;;;4909097;29;20259;-70
2023/05/17 11:15:12;;;;;;;5.25;3.55;;;17.10;66.90;;;;;;4924252;29;20182;-72
2023/05/17 11:17:45;;;;;;;5.20;3.70;;;16.90;67.50;;;;;;4926093;29;20964;-74
2023/05/17 11:20:13;;;;;;;5.45;2.88;;;17.10;66.90;;;;;;4923742;29;20276;-72
2023/05/17 11:22:54;;;;;;;4.97;2.83;;;17.20;67.30;;;;;;4921828;29;20189;-72
2023/05/17 11:25:20;;;;;;;6.15;3.13;;;16.60;67.60;;;;;;4911294;29;20304;-72
2023/05/17 11:27:46;;;;;;;6.82;3.80;;;16.70;68.50;;;;;;4928462;29;20192;-73
2023/05/17 11:30:28;;;;;;;5.78;4.25;;;16.70;69.90;;;;;;4928034;29;20257;-70
2023/05/17 11:32:58;;;;;;;4.78;2.90;;;16.00;70.00;;;;;;4930555;29;21174;-70
2023/05/17 11:35:28;;;;;;;5.10;3.30;;;16.40;70.00;;;;;;4928402;29;20186;-69
2023/05/17 11:38:22;;;;;;;5.18;3.50;;;16.00;70.80;;;;;;4927563;29;20535;-71
2023/05/17 11:40:53;;;;;;;6.65;3.95;;;15.40;72.50;;;;;;4911712;29;20825;-68
2023/05/17 11:43:23;;;;;;;5.50;3.88;;;15.80;73.40;;;;;;4929836;29;20252;-68
2023/05/17 11:45:56;;;;;;;5.75;3.33;;;15.70;75.00;;;;;;4926292;29;20186;-68
2023/05/17 11:48:22;;;;;;;4.00;3.42;;;15.50;76.00;;;;;;4929907;29;20277;-68
2023/05/17 11:50:50;;;;;;;6.38;3.10;;;15.60;76.50;;;;;;4925346;29;20217;-68
2023/05/17 11:53:16;;;;;;;3.63;3.28;;;15.20;76.20;;;;;;4924926;29;20193;-69
2023/05/17 11:55:47;;;;;;;5.32;3.40;;;15.50;77.50;;;;;;4929263;29;20348;-69
2023/05/17 11:58:15;;;;;;;4.35;3.35;;;15.30;76.80;;;;;;4932477;29;20260;-69
2023/05/17 17:13:53;;;;;;;3.97;3.00;;;13.90;77.80;;;;;;5284599;23;20404;-91
2023/05/17 17:16:19;;;;;;;5.10;3.93;;;14.60;81.50;;;;;;4938794;29;20185;-91
2023/05/17 17:18:45;;;;;;;4.45;3.30;;;15.70;81.20;;;;;;4937272;28;20446;-91
2023/05/17 17:21:12;;;;;;;3.93;2.63;;;14.10;77.00;;;;;;4940770;28;20185;-91
2023/05/17 17:23:39;;;;;;;4.25;3.30;;;15.40;81.10;;;;;;4938926;29;20448;-91
2023/05/17 17:26:04;;;;;;;7.07;3.33;;;13.60;75.90;;;;;;4937215;29;20208;-89
2023/05/17 17:28:30;;;;;;;3.90;2.90;;;15.80;78.20;;;;;;4937257;28;20239;-90
2023/05/17 17:30:57;;;;;;;4.03;3.13;;;15.00;79.30;;;;;;4937719;28;21043;-90
2023/05/17 17:33:22;;;;;;;4.32;3.28;;;14.40;79.10;;;;;;4937462;29;20188;-89
2023/05/17 17:35:48;;;;;;;3.47;2.40;;;15.00;77.80;;;;;;4939215;29;20263;-91
2023/05/17 17:38:14;;;;;;;4.10;3.23;;;16.20;81.00;;;;;;4936139;28;20218;-90
2023/05/17 17:40:39;;;;;;;3.83;3.43;;;14.70;80.90;;;;;;4946544;29;20621;-90
2023/05/17 17:43:05;;;;;;;5.80;4.07;;;14.00;76.40;;;;;;4955378;29;20207;-90
2023/05/17 17:45:33;;;;;;;4.70;3.30;;;14.90;77.70;;;;;;4957314;28;20262;-89
2023/05/17 17:47:59;;;;;;;4.18;3.08;;;14.60;78.40;;;;;;4958877;28;20200;-90
2023/05/17 17:50:25;;;;;;;4.80;3.43;;;15.20;77.50;;;;;;4959696;28;20335;-90
2023/05/17 17:52:50;;;;;;;5.30;4.00;;;15.20;78.50;;;;;;4954186;28;20193;-90
2023/05/17 17:55:16;;;;;;;7.37;6.23;;;14.60;77.70;;;;;;4958136;28;20196;-90
2023/05/17 17:57:42;;;;;;;5.07;3.10;;;15.10;80.10;;;;;;4953823;29;20205;-90
2023/05/17 18:00:11;;;;;;;5.63;3.10;;;14.30;79.90;;;;;;4948323;29;20177;-90
2023/05/17 18:02:38;;;;;;;5.55;4.90;;;14.10;80.50;;;;;;4952605;29;20213;-90
2023/05/17 18:05:03;;;;;;;6.00;4.20;;;14.30;78.20;;;;;;4960175;29;20417;-90
2023/05/17 18:07:29;;;;;;;6.20;3.47;;;13.90;80.60;;;;;;4938608;29;20189;-90
2023/05/17 18:09:55;;;;;;;4.35;3.30;;;13.90;79.50;;;;;;4939267;29;20618;-90
2023/05/17 18:12:21;;;;;;;5.33;3.40;;;15.70;81.00;;;;;;4933634;29;20228;-91
2023/05/17 18:14:47;;;;;;;3.75;3.40;;;16.20;80.60;;;;;;4934163;29;20480;-90
2023/05/17 18:17:13;;;;;;;4.20;3.80;;;14.70;80.20;;;;;;4936353;28;20266;-91
2023/05/17 18:19:38;;;;;;;5.53;3.70;;;12.60;80.30;;;;;;4934644;28;20308;-91
2023/05/17 18:22:04;;;;;;;4.40;3.10;;;14.50;80.70;;;;;;4932960;29;20212;-90
2023/05/17 18:24:30;;;;;;;3.70;2.67;;;13.90;79.70;;;;;;4935233;29;20664;-91
2023/05/17 18:26:56;;;;;;;3.90;3.30;;;12.30;77.80;;;;;;4933495;29;20730;-92
2023/05/17 18:29:22;;;;;;;6.90;3.60;;;15.20;81.00;;;;;;4935366;29;20213;-90
2023/05/17 18:31:47;;;;;;;4.70;3.80;;;13.80;80.20;;;;;;4936324;29;20681;-92
2023/05/17 18:34:13;;;;;;;4.57;3.43;;;13.20;79.10;;;;;;4939227;28;20187;-90
2023/05/17 18:36:38;;;;;;;3.50;3.20;;;14.50;81.40;;;;;;4957395;28;20207;-92
2023/05/17 18:39:04;;;;;;;4.07;3.47;;;15.60;81.80;;;;;;4950170;29;20681;-93
2023/05/17 18:41:30;;;;;;;3.33;3.03;;;14.40;80.90;;;;;;4933357;29;20972;-92
2023/05/17 18:44:00;;;;;;;6.60;3.57;;;14.00;83.00;;;;;;4935967;29;20189;-92
2023/05/17 18:46:28;;;;;;;8.50;3.90;;;13.80;81.80;;;;;;4920616;29;20603;-92
2023/05/17 18:49:04;;;;;;;6.60;5.07;;;14.10;82.50;;;;;;4936354;29;20714;-92
2023/05/17 18:51:30;;;;;;;6.18;5.53;;;13.90;83.80;;;;;;4934330;28;20267;-92
2023/05/17 18:53:56;;;;;;;5.10;4.55;;;13.60;82.00;;;;;;4936730;28;20642;-92
2023/05/17 18:56:25;;;;;;;5.97;5.00;;;14.20;83.00;;;;;;4935067;29;20276;-92
2023/05/17 18:58:54;;;;;;;5.40;4.80;;;13.80;84.20;;;;;;4934589;28;20181;-92
2023/05/17 19:01:19;;;;;;;6.65;4.55;;;14.10;82.90;;;;;;4935324;28;20695;-92
2023/05/17 19:03:46;;;;;;;4.47;4.07;;;14.30;85.30;;;;;;4936096;29;20176;-92
2023/05/17 19:06:14;;;;;;;5.40;4.13;;;14.40;85.40;;;;;;4962304;28;20208;-92
2023/05/17 19:08:40;;;;;;;4.68;3.75;;;15.10;89.30;;;;;;4958904;28;20236;-92